<?xml version="1.0" encoding="UTF-8" standalone="no" ?>
<gpx xmlns="http://www.topografix.com/GPX/1/1" xmlns:xsi="http://www.w3.org/2001/XMLSchema-instance" xsi:schemaLocation="http://www.topografix.com/GPX/1/1 http://www.topografix.com/GPX/1/1/gpx.xsd" version="1.1" creator="VisuGPX - https://www.visugpx.com">
  <metadata>
    <name>Maroc 2018 - Trajet complet</name>
    <desc><![CDATA[Maroc 2018 - Trajet complet de tassa ouirgane au Toubkal et retour à Imlil]]></desc>
  </metadata>
  <trk>
    <name><![CDATA[2018-06-18 16:00:22]]></name>
    <trkseg>
      <trkpt lat="31.12383" lon="-7.95119">
        <ele>2479.46</ele>
        <time>2018-06-18T13:31:52Z</time>
      </trkpt>
      <trkpt lat="31.12383" lon="-7.95117">
        <ele>2478.18</ele>
        <time>2018-06-18T13:32:52Z</time>
      </trkpt>
      <trkpt lat="31.1238" lon="-7.95116">
        <ele>2479.06</ele>
        <time>2018-06-18T13:33:53Z</time>
      </trkpt>
      <trkpt lat="31.12381" lon="-7.95115">
        <ele>2478.52</ele>
        <time>2018-06-18T13:34:53Z</time>
      </trkpt>
      <trkpt lat="31.12381" lon="-7.95117">
        <ele>2478.58</ele>
        <time>2018-06-18T13:35:53Z</time>
      </trkpt>
      <trkpt lat="31.12382" lon="-7.95115">
        <ele>2478.42</ele>
        <time>2018-06-18T13:36:54Z</time>
      </trkpt>
      <trkpt lat="31.12383" lon="-7.95117">
        <ele>2478.06</ele>
        <time>2018-06-18T13:37:54Z</time>
      </trkpt>
      <trkpt lat="31.12384" lon="-7.95112">
        <ele>2477.98</ele>
        <time>2018-06-18T13:38:54Z</time>
      </trkpt>
      <trkpt lat="31.12386" lon="-7.95116">
        <ele>2477.02</ele>
        <time>2018-06-18T13:39:54Z</time>
      </trkpt>
      <trkpt lat="31.12384" lon="-7.95115">
        <ele>2476.85</ele>
        <time>2018-06-18T13:40:54Z</time>
      </trkpt>
      <trkpt lat="31.12399" lon="-7.951">
        <ele>2474.4</ele>
        <time>2018-06-18T13:41:54Z</time>
      </trkpt>
      <trkpt lat="31.12413" lon="-7.95089">
        <ele>2466.7</ele>
        <time>2018-06-18T13:42:54Z</time>
      </trkpt>
      <trkpt lat="31.12426" lon="-7.95076">
        <ele>2459.47</ele>
        <time>2018-06-18T13:43:55Z</time>
      </trkpt>
      <trkpt lat="31.12451" lon="-7.9507">
        <ele>2455.24</ele>
        <time>2018-06-18T13:44:55Z</time>
      </trkpt>
      <trkpt lat="31.12475" lon="-7.95065">
        <ele>2445.78</ele>
        <time>2018-06-18T13:45:55Z</time>
      </trkpt>
      <trkpt lat="31.12502" lon="-7.95051">
        <ele>2436.23</ele>
        <time>2018-06-18T13:46:55Z</time>
      </trkpt>
      <trkpt lat="31.12507" lon="-7.95037">
        <ele>2427.15</ele>
        <time>2018-06-18T13:47:55Z</time>
      </trkpt>
      <trkpt lat="31.12524" lon="-7.95013">
        <ele>2418.14</ele>
        <time>2018-06-18T13:48:55Z</time>
      </trkpt>
      <trkpt lat="31.12541" lon="-7.94985">
        <ele>2408.93</ele>
        <time>2018-06-18T13:49:55Z</time>
      </trkpt>
      <trkpt lat="31.12543" lon="-7.94964">
        <ele>2400.63</ele>
        <time>2018-06-18T13:50:55Z</time>
      </trkpt>
      <trkpt lat="31.12568" lon="-7.94951">
        <ele>2392.36</ele>
        <time>2018-06-18T13:51:55Z</time>
      </trkpt>
      <trkpt lat="31.12595" lon="-7.9494">
        <ele>2384.23</ele>
        <time>2018-06-18T13:52:55Z</time>
      </trkpt>
      <trkpt lat="31.12611" lon="-7.94902">
        <ele>2376.06</ele>
        <time>2018-06-18T13:53:55Z</time>
      </trkpt>
      <trkpt lat="31.12605" lon="-7.94881">
        <ele>2369.67</ele>
        <time>2018-06-18T13:54:55Z</time>
      </trkpt>
      <trkpt lat="31.12598" lon="-7.94865">
        <ele>2359.97</ele>
        <time>2018-06-18T13:55:55Z</time>
      </trkpt>
      <trkpt lat="31.12612" lon="-7.94838">
        <ele>2348.97</ele>
        <time>2018-06-18T13:56:55Z</time>
      </trkpt>
      <trkpt lat="31.12627" lon="-7.94811">
        <ele>2339.9</ele>
        <time>2018-06-18T13:57:55Z</time>
      </trkpt>
      <trkpt lat="31.12625" lon="-7.94793">
        <ele>2331.39</ele>
        <time>2018-06-18T13:58:55Z</time>
      </trkpt>
      <trkpt lat="31.1263" lon="-7.94789">
        <ele>2327.82</ele>
        <time>2018-06-18T13:59:55Z</time>
      </trkpt>
      <trkpt lat="31.12637" lon="-7.94786">
        <ele>2326.03</ele>
        <time>2018-06-18T14:00:55Z</time>
      </trkpt>
      <trkpt lat="31.12633" lon="-7.94777">
        <ele>2323.79</ele>
        <time>2018-06-18T14:01:55Z</time>
      </trkpt>
      <trkpt lat="31.12663" lon="-7.94756">
        <ele>2311.82</ele>
        <time>2018-06-18T14:02:55Z</time>
      </trkpt>
      <trkpt lat="31.12697" lon="-7.94724">
        <ele>2299.32</ele>
        <time>2018-06-18T14:03:55Z</time>
      </trkpt>
      <trkpt lat="31.12723" lon="-7.9468">
        <ele>2284.69</ele>
        <time>2018-06-18T14:04:55Z</time>
      </trkpt>
      <trkpt lat="31.12764" lon="-7.94623">
        <ele>2270.85</ele>
        <time>2018-06-18T14:05:55Z</time>
      </trkpt>
      <trkpt lat="31.12751" lon="-7.94592">
        <ele>2256.63</ele>
        <time>2018-06-18T14:06:55Z</time>
      </trkpt>
      <trkpt lat="31.12749" lon="-7.94553">
        <ele>2239.8</ele>
        <time>2018-06-18T14:07:55Z</time>
      </trkpt>
      <trkpt lat="31.12764" lon="-7.94484">
        <ele>2224.3</ele>
        <time>2018-06-18T14:08:55Z</time>
      </trkpt>
      <trkpt lat="31.12781" lon="-7.94405">
        <ele>2205.23</ele>
        <time>2018-06-18T14:09:55Z</time>
      </trkpt>
      <trkpt lat="31.12759" lon="-7.94356">
        <ele>2188.37</ele>
        <time>2018-06-18T14:10:55Z</time>
      </trkpt>
      <trkpt lat="31.12782" lon="-7.94267">
        <ele>2165.96</ele>
        <time>2018-06-18T14:11:55Z</time>
      </trkpt>
      <trkpt lat="31.12803" lon="-7.94182">
        <ele>2155.86</ele>
        <time>2018-06-18T14:12:55Z</time>
      </trkpt>
      <trkpt lat="31.12791" lon="-7.94089">
        <ele>2139.23</ele>
        <time>2018-06-18T14:13:55Z</time>
      </trkpt>
      <trkpt lat="31.12803" lon="-7.94012">
        <ele>2133.66</ele>
        <time>2018-06-18T14:14:55Z</time>
      </trkpt>
      <trkpt lat="31.12805" lon="-7.93957">
        <ele>2124.09</ele>
        <time>2018-06-18T14:15:55Z</time>
      </trkpt>
      <trkpt lat="31.12818" lon="-7.93892">
        <ele>2126.68</ele>
        <time>2018-06-18T14:16:55Z</time>
      </trkpt>
      <trkpt lat="31.12819" lon="-7.93877">
        <ele>2124.78</ele>
        <time>2018-06-18T14:17:56Z</time>
      </trkpt>
      <trkpt lat="31.12823" lon="-7.93784">
        <ele>2118.86</ele>
        <time>2018-06-18T14:18:56Z</time>
      </trkpt>
      <trkpt lat="31.12847" lon="-7.93693">
        <ele>2111.26</ele>
        <time>2018-06-18T14:19:56Z</time>
      </trkpt>
      <trkpt lat="31.12868" lon="-7.93603">
        <ele>2096.3</ele>
        <time>2018-06-18T14:20:56Z</time>
      </trkpt>
      <trkpt lat="31.12881" lon="-7.93563">
        <ele>2096.63</ele>
        <time>2018-06-18T14:21:56Z</time>
      </trkpt>
      <trkpt lat="31.12899" lon="-7.93514">
        <ele>2086.6</ele>
        <time>2018-06-18T14:22:56Z</time>
      </trkpt>
      <trkpt lat="31.12945" lon="-7.93419">
        <ele>2079.77</ele>
        <time>2018-06-18T14:23:56Z</time>
      </trkpt>
      <trkpt lat="31.12978" lon="-7.93385">
        <ele>2075.91</ele>
        <time>2018-06-18T14:24:56Z</time>
      </trkpt>
      <trkpt lat="31.12975" lon="-7.93379">
        <ele>2074.48</ele>
        <time>2018-06-18T14:25:56Z</time>
      </trkpt>
      <trkpt lat="31.12959" lon="-7.93314">
        <ele>2060.97</ele>
        <time>2018-06-18T14:26:56Z</time>
      </trkpt>
      <trkpt lat="31.1297" lon="-7.93206">
        <ele>2040.39</ele>
        <time>2018-06-18T14:27:56Z</time>
      </trkpt>
      <trkpt lat="31.13002" lon="-7.93152">
        <ele>2030.13</ele>
        <time>2018-06-18T14:28:56Z</time>
      </trkpt>
      <trkpt lat="31.13021" lon="-7.93144">
        <ele>2023.65</ele>
        <time>2018-06-18T14:29:56Z</time>
      </trkpt>
      <trkpt lat="31.13075" lon="-7.93061">
        <ele>2008.1</ele>
        <time>2018-06-18T14:30:56Z</time>
      </trkpt>
      <trkpt lat="31.13103" lon="-7.92959">
        <ele>2001.32</ele>
        <time>2018-06-18T14:31:56Z</time>
      </trkpt>
      <trkpt lat="31.1313" lon="-7.92858">
        <ele>1994.39</ele>
        <time>2018-06-18T14:32:56Z</time>
      </trkpt>
      <trkpt lat="31.1314" lon="-7.92762">
        <ele>1986.71</ele>
        <time>2018-06-18T14:33:56Z</time>
      </trkpt>
      <trkpt lat="31.13161" lon="-7.92702">
        <ele>1981.23</ele>
        <time>2018-06-18T14:34:56Z</time>
      </trkpt>
      <trkpt lat="31.13195" lon="-7.92601">
        <ele>1968.93</ele>
        <time>2018-06-18T14:35:56Z</time>
      </trkpt>
      <trkpt lat="31.13197" lon="-7.925">
        <ele>1967.62</ele>
        <time>2018-06-18T14:36:56Z</time>
      </trkpt>
      <trkpt lat="31.13229" lon="-7.92432">
        <ele>1959.34</ele>
        <time>2018-06-18T14:37:56Z</time>
      </trkpt>
      <trkpt lat="31.13282" lon="-7.92369">
        <ele>1949.54</ele>
        <time>2018-06-18T14:38:56Z</time>
      </trkpt>
      <trkpt lat="31.13337" lon="-7.92291">
        <ele>1937.28</ele>
        <time>2018-06-18T14:39:56Z</time>
      </trkpt>
      <trkpt lat="31.13363" lon="-7.92215">
        <ele>1928.28</ele>
        <time>2018-06-18T14:40:56Z</time>
      </trkpt>
      <trkpt lat="31.13363" lon="-7.92291">
        <ele>1916.37</ele>
        <time>2018-06-18T14:41:56Z</time>
      </trkpt>
      <trkpt lat="31.1335" lon="-7.92368">
        <ele>1905.01</ele>
        <time>2018-06-18T14:42:56Z</time>
      </trkpt>
      <trkpt lat="31.13334" lon="-7.92434">
        <ele>1897.26</ele>
        <time>2018-06-18T14:43:56Z</time>
      </trkpt>
      <trkpt lat="31.13321" lon="-7.92529">
        <ele>1892.13</ele>
        <time>2018-06-18T14:44:56Z</time>
      </trkpt>
      <trkpt lat="31.13319" lon="-7.92617">
        <ele>1886.14</ele>
        <time>2018-06-18T14:45:56Z</time>
      </trkpt>
      <trkpt lat="31.13337" lon="-7.92707">
        <ele>1877.94</ele>
        <time>2018-06-18T14:46:56Z</time>
      </trkpt>
      <trkpt lat="31.13368" lon="-7.92779">
        <ele>1873.83</ele>
        <time>2018-06-18T14:47:56Z</time>
      </trkpt>
      <trkpt lat="31.13398" lon="-7.92838">
        <ele>1868.96</ele>
        <time>2018-06-18T14:48:56Z</time>
      </trkpt>
      <trkpt lat="31.1342" lon="-7.92816">
        <ele>1865.53</ele>
        <time>2018-06-18T14:49:56Z</time>
      </trkpt>
      <trkpt lat="31.1342" lon="-7.92806">
        <ele>1864.43</ele>
        <time>2018-06-18T14:50:56Z</time>
      </trkpt>
      <trkpt lat="31.13421" lon="-7.92788">
        <ele>1862.17</ele>
        <time>2018-06-18T14:51:56Z</time>
      </trkpt>
      <trkpt lat="31.13417" lon="-7.92723">
        <ele>1855.8</ele>
        <time>2018-06-18T14:52:56Z</time>
      </trkpt>
      <trkpt lat="31.13442" lon="-7.9279">
        <ele>1855.2</ele>
        <time>2018-06-18T14:53:56Z</time>
      </trkpt>
      <trkpt lat="31.13465" lon="-7.92812">
        <ele>1855.72</ele>
        <time>2018-06-18T14:54:56Z</time>
      </trkpt>
      <trkpt lat="31.13462" lon="-7.92807">
        <ele>1855.4</ele>
        <time>2018-06-18T14:55:56Z</time>
      </trkpt>
      <trkpt lat="31.13463" lon="-7.928">
        <ele>1855.77</ele>
        <time>2018-06-18T14:56:56Z</time>
      </trkpt>
      <trkpt lat="31.13463" lon="-7.92805">
        <ele>1856.08</ele>
        <time>2018-06-18T14:57:56Z</time>
      </trkpt>
      <trkpt lat="31.13451" lon="-7.92788">
        <ele>1855.02</ele>
        <time>2018-06-18T14:58:56Z</time>
      </trkpt>
      <trkpt lat="31.13455" lon="-7.92804">
        <ele>1856.51</ele>
        <time>2018-06-18T14:59:56Z</time>
      </trkpt>
      <trkpt lat="31.13467" lon="-7.92809">
        <ele>1858.48</ele>
        <time>2018-06-18T15:00:21Z</time>
      </trkpt>
    </trkseg>
  </trk>
</gpx>